Time;durP1;ratioP1;P1;durP2;ratioP2;P2;SDS_P1;SDS_P2;PMS_P1;PMS_P2;Temp;Humidity;BMP_temperature;BMP_pressure;BME280_temperature;BME280_humidity;BME280_pressure;Samples;Min_cycle;Max_cycle;Signal;HPM_P1;HPM_P2
2021/01/10 00:02:15;;;;;;;1.17;0.90;;;22.00;31.70;;;;;;4983415;28;20503;-45
2021/01/10 00:04:41;;;;;;;2.70;1.17;;;22.00;31.70;;;;;;4982390;28;20484;-44
2021/01/10 00:07:07;;;;;;;1.95;0.90;;;22.00;31.60;;;;;;4984370;28;20022;-44
2021/01/10 00:09:33;;;;;;;3.00;1.00;;;22.00;31.60;;;;;;4988088;28;20149;-44
2021/01/10 00:11:58;;;;;;;1.88;1.08;;;22.00;31.50;;;;;;4981967;28;20081;-46
2021/01/10 00:14:24;;;;;;;2.15;1.10;;;22.00;31.50;;;;;;4985085;28;20057;-45
2021/01/10 00:16:50;;;;;;;4.15;1.08;;;22.10;31.50;;;;;;4983606;28;20381;-44
2021/01/10 00:19:15;;;;;;;2.33;1.15;;;22.00;31.40;;;;;;4982400;28;20019;-43
2021/01/10 00:21:41;;;;;;;1.58;1.10;;;22.10;31.40;;;;;;4978636;28;20037;-44
2021/01/10 00:24:07;;;;;;;1.73;1.20;;;22.10;31.40;;;;;;4983425;28;20046;-43
2021/01/10 00:26:38;;;;;;;1.98;1.08;;;22.10;31.40;;;;;;4979838;28;20045;-52
2021/01/10 00:29:08;;;;;;;2.10;1.27;;;22.10;31.40;;;;;;4980444;28;20031;-43
2021/01/10 00:31:35;;;;;;;1.40;1.20;;;22.10;31.40;;;;;;4982076;28;20070;-43
2021/01/10 00:34:02;;;;;;;2.10;1.20;;;22.10;32.00;;;;;;4985901;28;20026;-44
2021/01/10 00:36:38;;;;;;;3.33;1.30;;;22.20;31.40;;;;;;4981772;28;20023;-43
2021/01/10 00:39:06;;;;;;;2.00;1.30;;;22.20;31.40;;;;;;4982294;28;20046;-45
2021/01/10 00:41:39;;;;;;;2.97;1.23;;;22.20;31.40;;;;;;4982583;28;20158;-45
2021/01/10 00:44:06;;;;;;;2.85;1.58;;;22.20;31.40;;;;;;4963988;28;20033;-44
2021/01/10 00:46:33;;;;;;;2.50;1.27;;;22.20;31.30;;;;;;4983386;28;20337;-44
2021/01/10 00:49:00;;;;;;;1.80;1.08;;;22.20;31.30;;;;;;4980601;28;20065;-44
2021/01/10 00:51:25;;;;;;;1.70;1.17;;;22.20;31.30;;;;;;4967862;28;20026;-44
2021/01/10 00:53:51;;;;;;;2.53;1.45;;;22.20;31.30;;;;;;4966249;28;20026;-44
2021/01/10 00:56:18;;;;;;;2.28;1.17;;;22.20;31.30;;;;;;4967094;28;20022;-44
2021/01/10 00:58:45;;;;;;;2.33;1.23;;;22.20;31.30;;;;;;4982704;28;20049;-44
2021/01/10 01:01:11;;;;;;;1.70;1.02;;;22.20;31.20;;;;;;4976127;28;20082;-43
2021/01/10 01:03:38;;;;;;;2.90;1.27;;;22.20;31.20;;;;;;4985581;28;20109;-44
2021/01/10 01:06:09;;;;;;;2.28;1.30;;;22.20;31.20;;;;;;4967907;28;20134;-43
2021/01/10 01:08:35;;;;;;;2.28;1.48;;;22.20;31.20;;;;;;4983095;28;20089;-43
2021/01/10 01:11:01;;;;;;;2.13;1.40;;;22.20;31.20;;;;;;4981817;28;20485;-43
2021/01/10 01:13:26;;;;;;;2.75;1.48;;;22.30;31.20;;;;;;4977953;28;20115;-42
2021/01/10 01:15:52;;;;;;;2.03;1.30;;;22.20;31.10;;;;;;4981489;28;20038;-43
2021/01/10 01:18:18;;;;;;;2.65;1.45;;;22.20;31.20;;;;;;4989243;28;20442;-43
2021/01/10 01:20:45;;;;;;;1.80;1.13;;;22.20;31.10;;;;;;4984379;28;20485;-44
2021/01/10 01:23:11;;;;;;;2.15;1.35;;;22.20;31.10;;;;;;4984043;28;20050;-43
2021/01/10 01:25:37;;;;;;;2.38;1.40;;;22.30;31.20;;;;;;4984564;28;20109;-44
2021/01/10 01:28:04;;;;;;;2.35;1.17;;;22.20;31.10;;;;;;4983025;28;20457;-43
2021/01/10 01:30:30;;;;;;;2.78;1.30;;;22.30;31.20;;;;;;4977414;28;20137;-43
2021/01/10 01:32:56;;;;;;;2.17;1.23;;;22.30;31.20;;;;;;4981533;28;20109;-42
2021/01/10 01:35:22;;;;;;;2.42;1.55;;;22.30;31.20;;;;;;4980364;28;20086;-45
2021/01/10 01:37:47;;;;;;;2.05;1.27;;;22.30;31.10;;;;;;4983492;28;20042;-46
2021/01/10 01:40:13;;;;;;;1.95;1.30;;;22.30;31.10;;;;;;4980624;28;20073;-44
2021/01/10 01:42:39;;;;;;;2.53;1.40;;;22.30;31.10;;;;;;4987977;28;20031;-42
2021/01/10 01:45:07;;;;;;;2.50;1.20;;;22.20;31.10;;;;;;4983925;28;20037;-43
2021/01/10 01:47:33;;;;;;;4.10;1.58;;;22.20;31.10;;;;;;4979992;28;20074;-44
2021/01/10 01:49:59;;;;;;;2.50;1.58;;;22.20;31.10;;;;;;4985059;28;20357;-42
2021/01/10 01:52:25;;;;;;;2.10;1.10;;;22.30;31.10;;;;;;4988428;28;20050;-42
2021/01/10 01:54:52;;;;;;;2.03;1.30;;;22.20;31.00;;;;;;4983752;28;20441;-43
2021/01/10 01:57:19;;;;;;;2.55;1.50;;;22.20;31.00;;;;;;4978287;28;20041;-44
2021/01/10 01:59:45;;;;;;;2.50;1.30;;;22.20;31.10;;;;;;4985376;28;20037;-42
2021/01/10 02:02:11;;;;;;;2.70;1.38;;;22.20;31.00;;;;;;4983864;28;20027;-42
2021/01/10 02:05:05;;;;;;;1.92;1.27;;;22.30;31.10;;;;;;4986120;28;20038;-41
2021/01/10 02:07:43;;;;;;;2.85;1.40;;;22.20;31.00;;;;;;4987114;28;20169;-43
2021/01/10 02:10:12;;;;;;;2.70;1.50;;;22.20;31.00;;;;;;4989472;28;20034;-43
2021/01/10 02:12:44;;;;;;;2.03;1.30;;;22.20;31.00;;;;;;4983293;28;20456;-42
2021/01/10 02:15:14;;;;;;;2.60;1.65;;;22.20;31.00;;;;;;4987660;28;20031;-43
2021/01/10 02:17:42;;;;;;;2.42;1.13;;;22.20;31.00;;;;;;4982941;28;20043;-43
2021/01/10 02:20:15;;;;;;;2.30;1.45;;;22.20;31.00;;;;;;4964095;28;20041;-45
2021/01/10 02:23:19;;;;;;;2.23;1.37;;;22.20;31.00;;;;;;4968060;28;20041;-43
2021/01/10 02:25:47;;;;;;;1.77;1.13;;;22.30;31.00;;;;;;4965728;28;20062;-43
2021/01/10 02:28:15;;;;;;;1.88;1.35;;;22.20;31.00;;;;;;4970668;28;20050;-43
2021/01/10 02:30:43;;;;;;;3.15;1.35;;;22.20;31.00;;;;;;4983330;28;20030;-44
2021/01/10 02:33:15;;;;;;;3.25;1.60;;;22.20;31.00;;;;;;4963193;28;20359;-44
2021/01/10 02:35:42;;;;;;;2.67;1.30;;;22.20;31.00;;;;;;4979085;28;21600;-44
2021/01/10 02:38:33;;;;;;;1.90;1.27;;;22.20;31.00;;;;;;4967165;28;20027;-44
2021/01/10 02:41:19;;;;;;;1.95;1.38;;;22.20;30.90;;;;;;4963378;28;20367;-42
2021/01/10 02:44:07;;;;;;;2.30;1.60;;;22.20;30.90;;;;;;4967085;28;20027;-43
2021/01/10 02:46:35;;;;;;;2.78;1.45;;;22.20;30.90;;;;;;4963565;28;20454;-44
2021/01/10 02:49:02;;;;;;;2.03;1.30;;;22.20;31.00;;;;;;4965641;28;20104;-43
2021/01/10 02:51:28;;;;;;;2.47;1.50;;;22.20;31.00;;;;;;4960342;28;20052;-44
2021/01/10 02:53:54;;;;;;;2.00;1.30;;;22.20;31.00;;;;;;4964431;28;20035;-45
2021/01/10 02:56:20;;;;;;;2.50;1.58;;;22.20;31.00;;;;;;4963210;28;20085;-43
2021/01/10 02:58:47;;;;;;;2.92;1.45;;;22.20;31.00;;;;;;4965719;28;20438;-43
2021/01/10 03:01:16;;;;;;;1.92;1.38;;;22.20;30.90;;;;;;4966458;28;20031;-42
2021/01/10 03:03:42;;;;;;;2.55;1.70;;;22.20;30.90;;;;;;4965172;28;20035;-44
2021/01/10 03:06:08;;;;;;;2.25;1.63;;;22.20;30.90;;;;;;4963502;28;20023;-43
2021/01/10 03:08:36;;;;;;;2.30;1.38;;;22.20;30.90;;;;;;4962812;28;20022;-42
2021/01/10 03:11:02;;;;;;;3.55;1.60;;;22.30;30.90;;;;;;4963064;28;20150;-46
2021/01/10 03:13:27;;;;;;;1.77;1.40;;;22.20;30.90;;;;;;4969733;28;20030;-43
2021/01/10 03:15:53;;;;;;;3.15;1.65;;;22.30;31.00;;;;;;4967662;28;20034;-43
2021/01/10 03:18:21;;;;;;;2.28;1.40;;;22.30;30.90;;;;;;4987016;28;20022;-45
2021/01/10 03:20:48;;;;;;;2.33;1.60;;;22.30;30.90;;;;;;4989466;28;20022;-43
2021/01/10 03:23:14;;;;;;;2.35;1.30;;;22.30;30.90;;;;;;4983770;28;20054;-43
2021/01/10 03:25:40;;;;;;;1.83;1.45;;;22.30;30.90;;;;;;4968578;28;20077;-42
2021/01/10 03:28:06;;;;;;;1.70;1.10;;;22.30;30.90;;;;;;4985989;28;20056;-45
2021/01/10 03:30:34;;;;;;;1.92;1.38;;;22.30;30.80;;;;;;4983120;28;20047;-43
2021/01/10 03:33:00;;;;;;;1.83;1.45;;;22.30;30.80;;;;;;4981755;28;20033;-44
2021/01/10 03:35:26;;;;;;;2.13;1.48;;;22.30;30.80;;;;;;4988322;28;20108;-42
2021/01/10 03:37:52;;;;;;;2.67;1.48;;;22.30;30.80;;;;;;4985422;28;20125;-44
2021/01/10 03:40:18;;;;;;;2.55;1.60;;;22.30;30.80;;;;;;4985134;28;20094;-43
2021/01/10 03:42:44;;;;;;;1.83;1.33;;;22.30;30.80;;;;;;4982778;28;20113;-44
2021/01/10 03:45:13;;;;;;;2.00;1.42;;;22.30;30.80;;;;;;4982130;28;20098;-43
2021/01/10 03:47:38;;;;;;;1.95;1.30;;;22.30;30.80;;;;;;4983932;28;20030;-44
2021/01/10 03:50:06;;;;;;;2.28;1.70;;;22.30;30.70;;;;;;4983225;28;20076;-45
2021/01/10 03:52:32;;;;;;;2.00;1.15;;;22.30;30.70;;;;;;4981844;28;20339;-41
2021/01/10 03:54:58;;;;;;;2.58;1.60;;;22.30;30.70;;;;;;4985051;28;20092;-46
2021/01/10 03:57:23;;;;;;;2.40;1.40;;;22.30;30.70;;;;;;4983622;28;20035;-44
2021/01/10 03:59:49;;;;;;;1.95;1.40;;;22.30;30.70;;;;;;4980199;28;20039;-46
2021/01/10 04:02:15;;;;;;;2.55;1.50;;;22.30;30.80;;;;;;4986761;28;20370;-45
2021/01/10 04:04:40;;;;;;;2.47;1.40;;;22.30;30.80;;;;;;4979669;28;20426;-45
2021/01/10 04:07:07;;;;;;;1.92;1.40;;;22.30;30.80;;;;;;4987939;28;20500;-44
2021/01/10 04:09:34;;;;;;;2.05;1.33;;;22.30;30.80;;;;;;4983048;28;20042;-43
2021/01/10 04:12:00;;;;;;;2.00;1.40;;;22.30;30.80;;;;;;4981024;28;20084;-44
2021/01/10 04:14:25;;;;;;;2.38;1.48;;;22.30;30.80;;;;;;4982957;28;20450;-43
2021/01/10 04:16:52;;;;;;;2.08;1.40;;;22.30;30.80;;;;;;4981659;28;20359;-42
2021/01/10 04:19:19;;;;;;;2.38;1.48;;;22.30;30.80;;;;;;4985940;28;20160;-43
2021/01/10 04:21:44;;;;;;;2.00;1.10;;;22.30;30.80;;;;;;4982679;28;20033;-45
2021/01/10 04:24:10;;;;;;;2.20;1.27;;;22.30;30.80;;;;;;4980619;28;20030;-45
2021/01/10 04:26:47;;;;;;;2.78;1.40;;;22.30;30.80;;;;;;4984268;28;20035;-45
2021/01/10 04:29:15;;;;;;;2.22;1.25;;;22.30;30.80;;;;;;4985107;28;20062;-43
2021/01/10 04:31:41;;;;;;;3.78;1.42;;;22.30;30.90;;;;;;4981433;28;20031;-44
2021/01/10 04:34:07;;;;;;;2.20;1.40;;;22.30;30.90;;;;;;4981945;28;20022;-43
2021/01/10 04:36:33;;;;;;;2.53;1.48;;;22.20;30.80;;;;;;4981720;28;20040;-45
2021/01/10 04:38:59;;;;;;;1.83;1.40;;;22.20;30.80;;;;;;4984385;28;20026;-42
2021/01/10 04:41:25;;;;;;;2.22;1.30;;;22.20;30.80;;;;;;4984572;28;20030;-42
2021/01/10 04:43:53;;;;;;;2.60;1.55;;;22.20;30.80;;;;;;4984345;28;20026;-42
2021/01/10 04:46:21;;;;;;;2.38;1.60;;;22.20;30.80;;;;;;4985435;28;20045;-42
2021/01/10 04:48:49;;;;;;;2.25;1.35;;;22.20;30.80;;;;;;4983638;28;20031;-43
2021/01/10 04:51:15;;;;;;;3.17;1.63;;;22.10;30.80;;;;;;4981432;28;20037;-43
2021/01/10 04:53:45;;;;;;;3.00;1.45;;;22.10;30.80;;;;;;4982734;28;20112;-47
2021/01/10 04:56:13;;;;;;;3.08;1.45;;;22.10;30.90;;;;;;4978478;28;20027;-44
2021/01/10 04:58:41;;;;;;;2.75;1.70;;;22.10;30.90;;;;;;4965679;28;20022;-44
2021/01/10 05:01:16;;;;;;;2.35;1.45;;;22.10;30.90;;;;;;4982102;28;20034;-45
2021/01/10 05:03:43;;;;;;;2.55;1.55;;;22.10;31.00;;;;;;4985033;28;20026;-42
2021/01/10 05:06:12;;;;;;;2.50;1.40;;;22.00;30.90;;;;;;4982980;28;20027;-44
2021/01/10 05:08:39;;;;;;;3.35;1.88;;;22.00;31.00;;;;;;4984916;28;20068;-43
2021/01/10 05:11:05;;;;;;;1.95;1.50;;;22.00;31.00;;;;;;4983615;28;20054;-45
2021/01/10 05:13:30;;;;;;;4.18;2.08;;;22.00;31.00;;;;;;4982185;28;20586;-43
2021/01/10 05:15:57;;;;;;;2.38;1.38;;;22.00;31.10;;;;;;4983431;28;20378;-46
2021/01/10 05:18:24;;;;;;;2.03;1.45;;;22.00;31.00;;;;;;4983344;28;20041;-43
2021/01/10 05:20:56;;;;;;;2.60;1.40;;;21.90;31.00;;;;;;4986095;28;20027;-43
2021/01/10 05:23:25;;;;;;;2.60;1.33;;;21.90;31.00;;;;;;4985582;28;20043;-43
2021/01/10 05:26:07;;;;;;;2.85;1.42;;;22.00;31.10;;;;;;4986346;28;20113;-42
2021/01/10 05:28:36;;;;;;;2.72;1.58;;;21.90;31.00;;;;;;4983583;28;20476;-43
2021/01/10 05:31:09;;;;;;;2.55;1.45;;;21.90;31.10;;;;;;4981263;28;20138;-42
2021/01/10 05:33:52;;;;;;;2.45;1.30;;;21.90;31.10;;;;;;4979233;28;20031;-44
2021/01/10 05:36:32;;;;;;;1.23;1.10;;;21.90;31.10;;;;;;4986940;28;20100;-45
2021/01/10 05:39:13;;;;;;;2.53;1.30;;;21.80;31.10;;;;;;4987156;28;20405;-43
2021/01/10 05:41:42;;;;;;;1.92;1.17;;;21.80;31.10;;;;;;4987288;28;20140;-42
2021/01/10 05:44:07;;;;;;;1.58;1.30;;;21.80;31.10;;;;;;4987928;28;20042;-43
2021/01/10 05:46:34;;;;;;;1.75;1.35;;;21.80;31.10;;;;;;4993101;28;20034;-44
2021/01/10 05:49:00;;;;;;;2.55;1.70;;;21.80;31.10;;;;;;4986656;28;20089;-45
2021/01/10 05:51:30;;;;;;;2.75;1.40;;;21.70;31.10;;;;;;4988943;28;20026;-43
2021/01/10 05:53:56;;;;;;;2.45;1.50;;;21.70;31.10;;;;;;4996453;28;20085;-44
2021/01/10 05:56:22;;;;;;;2.53;1.40;;;21.70;31.20;;;;;;4988466;28;20030;-43
2021/01/10 05:58:56;;;;;;;3.70;1.60;;;21.70;31.80;;;;;;4989161;28;20031;-43
2021/01/10 06:01:23;;;;;;;3.90;1.50;;;21.70;31.20;;;;;;4989782;28;20026;-43
2021/01/10 06:03:50;;;;;;;2.05;1.52;;;21.70;31.20;;;;;;4983808;28;20111;-44
2021/01/10 06:06:16;;;;;;;2.10;1.50;;;21.60;31.10;;;;;;4991170;28;20377;-44
2021/01/10 06:08:43;;;;;;;2.58;1.63;;;21.60;31.10;;;;;;4987821;28;20128;-45
2021/01/10 06:11:26;;;;;;;2.00;1.33;;;21.70;31.20;;;;;;4991548;28;20044;-46
2021/01/10 06:14:00;;;;;;;1.95;1.40;;;21.70;31.20;;;;;;4990372;28;20061;-47
2021/01/10 06:16:31;;;;;;;1.90;1.23;;;21.60;31.30;;;;;;4991446;28;20050;-47
2021/01/10 06:19:11;;;;;;;1.55;1.10;;;21.60;31.40;;;;;;4988480;28;20034;-45
2021/01/10 06:21:38;;;;;;;2.58;1.23;;;21.60;31.30;;;;;;4984973;28;20061;-42
2021/01/10 06:24:05;;;;;;;2.35;1.27;;;21.60;31.40;;;;;;4988446;28;20046;-42
2021/01/10 06:26:33;;;;;;;3.70;1.80;;;21.60;31.40;;;;;;4982259;28;20045;-45
2021/01/10 06:29:05;;;;;;;1.67;1.30;;;21.60;31.40;;;;;;4989691;28;20373;-42
2021/01/10 06:31:33;;;;;;;2.33;1.48;;;21.60;31.40;;;;;;4992680;28;20044;-42
2021/01/10 06:34:02;;;;;;;2.28;1.52;;;21.50;32.00;;;;;;4986272;28;20022;-42
2021/01/10 06:36:31;;;;;;;1.40;1.17;;;21.50;31.30;;;;;;4990380;28;20034;-46
2021/01/10 06:39:08;;;;;;;1.92;1.50;;;21.50;31.30;;;;;;4995583;28;20049;-42
2021/01/10 06:41:34;;;;;;;2.28;1.30;;;21.50;31.50;;;;;;4986144;28;20419;-43
2021/01/10 06:44:03;;;;;;;1.92;1.20;;;21.50;31.30;;;;;;4986110;28;20022;-41
2021/01/10 06:46:30;;;;;;;1.60;1.17;;;21.50;31.40;;;;;;4986435;28;20090;-42
2021/01/10 06:48:56;;;;;;;1.80;1.17;;;21.50;31.40;;;;;;4985973;28;20064;-44
2021/01/10 06:51:24;;;;;;;3.17;1.52;;;21.50;31.40;;;;;;4991692;28;20070;-43
2021/01/10 06:53:51;;;;;;;2.13;1.40;;;21.40;31.30;;;;;;4983101;28;20081;-42
2021/01/10 06:56:17;;;;;;;2.33;1.40;;;21.50;31.40;;;;;;4983397;28;20050;-43
2021/01/10 06:59:02;;;;;;;2.47;1.30;;;21.40;31.30;;;;;;4985047;28;20354;-46
2021/01/10 07:01:53;;;;;;;2.10;1.45;;;21.40;31.30;;;;;;4985002;28;20172;-42
2021/01/10 07:04:37;;;;;;;2.22;1.15;;;21.40;31.30;;;;;;4988131;28;20027;-43
2021/01/10 07:07:03;;;;;;;2.00;1.20;;;21.40;31.30;;;;;;4984216;28;20031;-43
2021/01/10 07:09:52;;;;;;;2.47;1.30;;;21.40;31.30;;;;;;4984108;28;20056;-44
2021/01/10 07:12:22;;;;;;;3.38;1.27;;;21.40;31.40;;;;;;4985352;28;20049;-46
2021/01/10 07:14:49;;;;;;;2.60;1.40;;;21.40;31.50;;;;;;4988007;28;20338;-44
2021/01/10 07:17:16;;;;;;;1.80;1.27;;;21.30;31.60;;;;;;4983636;28;20054;-43
2021/01/10 07:19:44;;;;;;;2.30;1.35;;;21.40;31.70;;;;;;4985561;28;20053;-46
2021/01/10 07:22:24;;;;;;;3.10;1.40;;;21.30;31.60;;;;;;4981848;28;20446;-44
2021/01/10 07:24:51;;;;;;;1.30;1.13;;;21.40;31.70;;;;;;4981469;28;20031;-44
2021/01/10 07:27:33;;;;;;;1.38;1.17;;;21.30;31.60;;;;;;4987845;28;20413;-44
2021/01/10 07:30:23;;;;;;;3.40;1.25;;;21.30;31.60;;;;;;4981899;28;20049;-43
2021/01/10 07:32:49;;;;;;;2.35;1.30;;;21.30;31.60;;;;;;4982057;28;20043;-46
2021/01/10 07:35:15;;;;;;;1.90;1.38;;;21.30;31.60;;;;;;4987125;28;20097;-46
2021/01/10 07:37:41;;;;;;;2.45;1.50;;;21.30;31.60;;;;;;4988930;28;20433;-44
2021/01/10 07:40:09;;;;;;;2.20;1.42;;;21.30;31.80;;;;;;4983130;28;20022;-44
2021/01/10 07:42:36;;;;;;;2.58;1.17;;;21.30;31.80;;;;;;4986366;28;20426;-43
2021/01/10 07:45:22;;;;;;;2.28;1.30;;;21.20;31.70;;;;;;4984899;28;20182;-44
2021/01/10 07:47:52;;;;;;;2.08;1.42;;;21.30;31.80;;;;;;4981192;28;20347;-44
2021/01/10 07:50:23;;;;;;;2.47;1.45;;;21.20;31.70;;;;;;4980742;28;20050;-50
2021/01/10 07:52:57;;;;;;;2.60;1.52;;;21.20;31.70;;;;;;4984767;28;20501;-42
2021/01/10 07:55:31;;;;;;;2.25;1.13;;;21.20;31.70;;;;;;4984219;28;20453;-46
2021/01/10 07:58:03;;;;;;;4.10;1.73;;;21.20;31.70;;;;;;4981609;28;20053;-44
2021/01/10 08:00:49;;;;;;;2.25;1.10;;;21.20;31.70;;;;;;4985556;28;20393;-46
2021/01/10 08:03:27;;;;;;;1.90;1.60;;;21.20;31.60;;;;;;4984353;28;20073;-47
2021/01/10 08:06:04;;;;;;;2.53;1.35;;;21.20;31.50;;;;;;4982723;28;20066;-43
2021/01/10 08:08:36;;;;;;;2.38;1.40;;;21.20;31.50;;;;;;4987708;28;20106;-43
2021/01/10 08:11:03;;;;;;;2.88;1.55;;;21.10;31.40;;;;;;4987301;28;20097;-42
2021/01/10 08:13:37;;;;;;;2.67;1.35;;;21.10;31.40;;;;;;4975722;28;20030;-44
2021/01/10 08:16:06;;;;;;;;;;;21.10;31.50;;;;;;4988107;28;20046;-48
2021/01/10 08:18:42;;;;;;;2.63;1.40;;;21.10;31.70;;;;;;4988068;28;19913;-48
2021/01/10 08:21:12;;;;;;;1.98;1.45;;;21.10;32.20;;;;;;4980609;28;20019;-49
2021/01/10 08:23:39;;;;;;;2.67;1.45;;;21.10;32.50;;;;;;4984576;28;20042;-53
2021/01/10 08:26:05;;;;;;;2.25;1.33;;;21.20;32.90;;;;;;4986699;28;20089;-50
2021/01/10 08:28:40;;;;;;;2.38;1.48;;;21.20;33.10;;;;;;4987568;28;20058;-45
2021/01/10 08:31:11;;;;;;;2.75;1.38;;;21.30;33.30;;;;;;4981159;28;20124;-52
2021/01/10 08:33:38;;;;;;;2.65;1.10;;;21.30;33.20;;;;;;4982435;28;20442;-45
2021/01/10 08:36:21;;;;;;;1.40;1.20;;;21.30;33.00;;;;;;4989690;28;20039;-45
2021/01/10 08:38:58;;;;;;;2.38;1.20;;;21.40;32.90;;;;;;4984342;28;20115;-46
2021/01/10 08:41:42;;;;;;;2.35;1.20;;;21.40;32.70;;;;;;4984000;28;20142;-44
2021/01/10 08:44:15;;;;;;;5.18;1.20;;;21.50;32.60;;;;;;4983436;28;20041;-46
2021/01/10 08:46:43;;;;;;;2.58;1.35;;;21.50;32.40;;;;;;4985856;28;20038;-49
2021/01/10 08:49:15;;;;;;;1.98;1.33;;;21.60;32.50;;;;;;4984699;28;20026;-53
2021/01/10 08:51:42;;;;;;;2.78;1.23;;;21.60;32.40;;;;;;4983824;28;20031;-50
2021/01/10 08:54:09;;;;;;;3.13;1.20;;;21.60;32.30;;;;;;4983323;28;20109;-49
2021/01/10 08:56:36;;;;;;;1.45;1.10;;;21.70;32.30;;;;;;4984212;28;20105;-44
2021/01/10 08:59:02;;;;;;;1.10;0.90;;;21.70;32.20;;;;;;4988443;28;20065;-47
2021/01/10 09:01:29;;;;;;;2.35;1.27;;;21.80;32.20;;;;;;4991246;28;20034;-46
2021/01/10 09:04:13;;;;;;;1.70;1.17;;;21.90;32.20;;;;;;4976009;28;20029;-47
2021/01/10 09:06:58;;;;;;;;;;;21.90;32.10;;;;;;4994411;28;20041;-46
2021/01/10 09:09:44;;;;;;;2.25;1.05;;;21.90;32.10;;;;;;4987620;28;19910;-44
2021/01/10 09:12:18;;;;;;;1.75;1.17;;;22.00;32.10;;;;;;4986323;28;20038;-45
2021/01/10 09:14:44;;;;;;;;;;;22.00;32.00;;;;;;4992163;28;20441;-46
2021/01/10 09:17:13;;;;;;;3.55;1.42;;;22.00;31.90;;;;;;4986370;28;19918;-45
2021/01/10 09:19:39;;;;;;;2.78;1.50;;;22.00;31.80;;;;;;4990442;28;20058;-46
2021/01/10 09:22:05;;;;;;;2.53;1.50;;;22.10;31.70;;;;;;4991915;28;20029;-46
2021/01/10 09:24:32;;;;;;;2.30;1.60;;;22.10;31.50;;;;;;4991727;28;20026;-46
2021/01/10 09:27:09;;;;;;;3.38;1.50;;;22.20;31.50;;;;;;4988918;28;20528;-47
2021/01/10 09:29:35;;;;;;;3.88;1.65;;;22.20;31.30;;;;;;4982718;28;20118;-48
2021/01/10 09:32:02;;;;;;;3.35;1.55;;;22.20;31.20;;;;;;4983698;28;20121;-43
2021/01/10 09:34:28;;;;;;;2.88;1.85;;;22.30;31.10;;;;;;4988126;28;21670;-50
2021/01/10 09:37:09;;;;;;;2.55;1.65;;;22.30;30.90;;;;;;4993899;28;20031;-51
2021/01/10 09:39:43;;;;;;;3.92;2.17;;;22.40;30.80;;;;;;4992739;28;20520;-52
2021/01/10 09:42:10;;;;;;;3.65;1.70;;;22.40;30.70;;;;;;4992203;28;20036;-46
2021/01/10 09:44:36;;;;;;;2.00;1.70;;;22.40;30.70;;;;;;4992245;28;20036;-46
2021/01/10 09:47:03;;;;;;;2.97;1.40;;;22.40;30.60;;;;;;4992839;28;20030;-45
2021/01/10 09:49:33;;;;;;;2.53;1.33;;;22.40;30.50;;;;;;4993463;28;20441;-46
2021/01/10 09:52:11;;;;;;;3.13;1.55;;;22.40;30.50;;;;;;4990555;28;20089;-45
2021/01/10 09:54:37;;;;;;;3.22;1.80;;;22.40;30.40;;;;;;4981469;28;20039;-43
2021/01/10 09:57:16;;;;;;;2.00;1.70;;;22.40;30.40;;;;;;4985101;28;20315;-47
2021/01/10 09:59:47;;;;;;;2.85;1.67;;;22.40;30.30;;;;;;4986259;28;20027;-43
2021/01/10 10:02:23;;;;;;;3.20;1.40;;;22.40;30.20;;;;;;4981443;28;20046;-45
2021/01/10 10:04:53;;;;;;;4.03;1.40;;;22.40;30.20;;;;;;4988668;28;20038;-47
2021/01/10 10:07:31;;;;;;;2.05;1.58;;;22.40;30.20;;;;;;4980767;28;20050;-45
2021/01/10 10:09:57;;;;;;;3.05;1.70;;;22.40;30.20;;;;;;4981318;28;20042;-44
2021/01/10 10:12:24;;;;;;;2.38;1.33;;;22.40;30.20;;;;;;4986195;28;20113;-44
2021/01/10 10:15:08;;;;;;;2.30;1.40;;;22.40;30.20;;;;;;4984005;28;20118;-45
2021/01/10 10:17:38;;;;;;;3.47;1.40;;;22.50;30.30;;;;;;4983160;28;20105;-45
2021/01/10 10:20:05;;;;;;;3.20;1.38;;;22.40;30.20;;;;;;4985567;28;20033;-42
2021/01/10 10:22:34;;;;;;;2.92;1.40;;;22.50;30.30;;;;;;4985911;28;20569;-42
2021/01/10 10:25:01;;;;;;;2.08;1.30;;;22.40;30.30;;;;;;4988329;28;20550;-43
2021/01/10 10:27:29;;;;;;;2.03;1.48;;;22.40;30.30;;;;;;4994524;28;20026;-44
2021/01/10 10:29:56;;;;;;;3.40;1.65;;;22.50;30.40;;;;;;4991088;28;20061;-42
2021/01/10 10:32:22;;;;;;;2.70;1.60;;;22.50;30.50;;;;;;4997699;28;20046;-57
2021/01/10 10:34:49;;;;;;;4.18;1.40;;;22.50;30.00;;;;;;4993736;28;20022;-60
2021/01/10 10:37:16;;;;;;;2.50;1.23;;;22.40;27.20;;;;;;4978892;28;20039;-41
2021/01/10 10:39:42;;;;;;;1.80;1.58;;;22.00;27.10;;;;;;4993071;28;20410;-42
2021/01/10 10:42:17;;;;;;;1.42;1.00;;;21.80;28.00;;;;;;4995296;28;20039;-43
2021/01/10 10:44:43;;;;;;;4.22;1.98;;;21.70;28.70;;;;;;4993738;28;20030;-39
2021/01/10 10:47:13;;;;;;;3.58;2.10;;;21.70;29.40;;;;;;4996903;28;20061;-41
2021/01/10 10:49:40;;;;;;;4.95;2.72;;;21.70;30.10;;;;;;4995151;28;20561;-41
2021/01/10 10:52:10;;;;;;;4.03;3.05;;;21.80;30.80;;;;;;4994251;28;20025;-40
2021/01/10 10:54:36;;;;;;;5.43;3.35;;;21.80;31.80;;;;;;4994643;28;20124;-41
2021/01/10 10:57:03;;;;;;;6.30;3.70;;;21.90;32.70;;;;;;4988710;28;20469;-44
2021/01/10 10:59:28;;;;;;;5.57;3.25;;;22.00;33.50;;;;;;4993882;28;20500;-46
2021/01/10 11:01:54;;;;;;;6.00;3.35;;;22.00;33.90;;;;;;4993742;28;20030;-45
2021/01/10 11:04:20;;;;;;;7.75;4.60;;;22.00;34.10;;;;;;4987029;28;20509;-43
2021/01/10 11:06:46;;;;;;;9.32;5.03;;;22.10;34.40;;;;;;4982066;28;20061;-42
2021/01/10 11:09:12;;;;;;;8.98;5.75;;;22.10;35.10;;;;;;4989136;28;20365;-44
2021/01/10 11:11:45;;;;;;;7.80;5.03;;;22.20;35.70;;;;;;4985813;28;20030;-43
2021/01/10 11:14:13;;;;;;;7.55;4.97;;;22.30;36.30;;;;;;4984636;28;20166;-46
2021/01/10 11:16:43;;;;;;;7.65;5.03;;;22.30;36.60;;;;;;4987957;28;20058;-41
2021/01/10 11:19:09;;;;;;;9.70;5.07;;;22.30;36.80;;;;;;4980664;28;20335;-46
2021/01/10 11:21:41;;;;;;;8.20;5.60;;;22.40;37.00;;;;;;4985068;28;20089;-42
2021/01/10 11:24:08;;;;;;;11.50;5.97;;;22.40;37.40;;;;;;4988048;28;21455;-44
2021/01/10 11:26:35;;;;;;;9.55;5.22;;;22.50;37.60;;;;;;4986423;28;20431;-41
2021/01/10 11:29:01;;;;;;;8.98;5.25;;;22.50;37.90;;;;;;4987820;28;20026;-45
2021/01/10 11:31:27;;;;;;;8.35;5.07;;;22.60;38.00;;;;;;4988681;28;21539;-41
2021/01/10 11:33:54;;;;;;;7.18;4.63;;;22.60;37.80;;;;;;4982706;28;20031;-42
2021/01/10 11:36:20;;;;;;;8.07;4.82;;;22.60;37.30;;;;;;4988125;28;20121;-43
2021/01/10 11:38:50;;;;;;;6.88;4.65;;;22.70;36.80;;;;;;4985488;28;20031;-41
2021/01/10 11:41:19;;;;;;;7.35;4.20;;;22.70;36.30;;;;;;4982695;28;20023;-42
2021/01/10 11:43:46;;;;;;;7.22;3.95;;;22.70;35.90;;;;;;4984943;28;20113;-43
2021/01/10 11:46:11;;;;;;;5.05;3.45;;;22.70;35.50;;;;;;4986307;28;20046;-43
2021/01/10 11:48:38;;;;;;;6.18;3.78;;;22.80;35.20;;;;;;4988699;28;20058;-44
2021/01/10 11:51:05;;;;;;;7.07;3.15;;;22.80;34.80;;;;;;4983890;28;20457;-64
2021/01/10 11:53:32;;;;;;;3.50;1.60;;;22.80;32.60;;;;;;4992076;28;20030;-42
2021/01/10 11:55:59;;;;;;;3.95;1.77;;;22.60;28.80;;;;;;4992261;28;20521;-43
2021/01/10 11:58:25;;;;;;;3.95;2.17;;;22.40;29.90;;;;;;4986164;28;20035;-42
2021/01/10 12:00:51;;;;;;;5.60;2.63;;;22.40;31.20;;;;;;4987526;28;20096;-40
2021/01/10 12:03:18;;;;;;;4.80;2.72;;;22.40;32.00;;;;;;4985587;28;20038;-41
2021/01/10 12:05:44;;;;;;;6.15;2.88;;;22.40;32.30;;;;;;4988233;28;20022;-42
2021/01/10 12:08:11;;;;;;;4.30;2.80;;;22.40;32.50;;;;;;4978727;28;20383;-41
2021/01/10 12:10:38;;;;;;;4.40;2.63;;;22.50;32.70;;;;;;4986631;28;20042;-42
2021/01/10 12:13:05;;;;;;;5.55;2.80;;;22.50;32.70;;;;;;4984472;28;20030;-46
2021/01/10 12:15:33;;;;;;;4.13;2.63;;;22.50;32.80;;;;;;4984777;28;20030;-44
2021/01/10 12:18:05;;;;;;;4.18;2.85;;;22.60;32.80;;;;;;4982774;28;20104;-42
2021/01/10 12:20:32;;;;;;;4.45;2.72;;;22.70;32.90;;;;;;4980445;28;20027;-46
2021/01/10 12:22:59;;;;;;;3.67;2.60;;;22.70;32.80;;;;;;4981754;28;20045;-44
2021/01/10 12:25:25;;;;;;;5.22;3.03;;;22.70;32.80;;;;;;4987795;28;20022;-44
2021/01/10 12:27:51;;;;;;;4.10;2.75;;;22.80;32.80;;;;;;4978942;28;20473;-43
2021/01/10 12:30:17;;;;;;;3.13;2.30;;;22.80;32.70;;;;;;4978930;28;20046;-48
2021/01/10 12:32:43;;;;;;;5.93;2.90;;;22.80;32.70;;;;;;4992268;28;20446;-43
2021/01/10 12:35:16;;;;;;;4.95;2.90;;;22.90;32.70;;;;;;4991032;28;20022;-46
2021/01/10 12:37:43;;;;;;;4.72;2.70;;;22.90;32.60;;;;;;4989117;28;20031;-46
2021/01/10 12:40:10;;;;;;;3.95;2.63;;;22.90;32.50;;;;;;4988299;28;20030;-42
2021/01/10 12:42:37;;;;;;;4.45;2.70;;;22.90;32.50;;;;;;4982732;28;20026;-47
2021/01/10 12:45:08;;;;;;;5.43;2.33;;;22.90;32.40;;;;;;4982177;28;20350;-45
2021/01/10 12:47:34;;;;;;;4.00;2.70;;;23.00;32.40;;;;;;4977755;28;20109;-42
2021/01/10 12:50:03;;;;;;;4.38;2.78;;;23.00;32.40;;;;;;4980737;28;20030;-41
2021/01/10 12:52:29;;;;;;;4.70;2.50;;;23.00;32.40;;;;;;4981526;28;20034;-41
2021/01/10 12:54:55;;;;;;;3.70;2.50;;;23.00;32.30;;;;;;4984650;28;20042;-42
2021/01/10 12:57:24;;;;;;;4.18;2.42;;;23.00;32.20;;;;;;4979560;28;20030;-40
2021/01/10 12:59:51;;;;;;;4.47;2.20;;;23.00;32.00;;;;;;4987505;28;20022;-40